Time;durP1;ratioP1;P1;durP2;ratioP2;P2;SDS_P1;SDS_P2;PMS_P1;PMS_P2;Temp;Humidity;BMP_temperature;BMP_pressure;BME280_temperature;BME280_humidity;BME280_pressure;Samples;Min_cycle;Max_cycle;Signal;HPM_P1;HPM_P2
2023/05/25 00:01:35;;;;;;;10.07;6.43;;;;;;;6.74;100.00;96835.03;7397282;19;20368;-75
2023/05/25 00:04:02;;;;;;;11.70;7.30;;;;;;;6.67;100.00;96824.88;7397731;19;20349;-74
2023/05/25 00:06:31;;;;;;;9.50;6.20;;;;;;;6.81;100.00;96833.59;7396148;19;20376;-74
2023/05/25 00:08:58;;;;;;;7.93;6.00;;;;;;;6.57;100.00;96819.81;7397925;19;20361;-74
2023/05/25 00:11:25;;;;;;;9.70;6.20;;;;;;;6.44;100.00;96810.81;7394584;19;20380;-75
2023/05/25 00:13:52;;;;;;;13.67;6.50;;;;;;;6.59;100.00;96815.03;7397975;19;20424;-74
2023/05/25 00:16:20;;;;;;;7.43;6.07;;;;;;;6.41;100.00;96827.16;7396015;19;20702;-74
2023/05/25 00:18:47;;;;;;;10.50;6.00;;;;;;;6.30;100.00;96803.97;7397918;19;20396;-74
2023/05/25 00:21:14;;;;;;;8.83;5.97;;;;;;;6.18;100.00;96784.16;7395285;19;20956;-74
2023/05/25 00:23:42;;;;;;;10.17;5.50;;;;;;;6.20;100.00;96810.91;7397238;19;20383;-74
2023/05/25 00:26:09;;;;;;;14.73;6.53;;;;;;;6.27;100.00;96797.41;7395823;19;21150;-74
2023/05/25 00:28:36;;;;;;;9.70;6.87;;;;;;;6.12;100.00;96774.03;7395749;19;20427;-74
2023/05/25 00:31:03;;;;;;;10.90;7.13;;;;;;;6.05;100.00;96786.75;7395223;19;20431;-74
2023/05/25 00:33:30;;;;;;;12.10;6.53;;;;;;;6.00;100.00;96784.19;7397457;19;20401;-74
2023/05/25 00:35:59;;;;;;;12.97;6.27;;;;;;;6.10;100.00;96790.06;7395952;19;20391;-74
2023/05/25 00:38:26;;;;;;;10.87;5.87;;;;;;;6.00;100.00;96766.59;7397745;19;20448;-74
2023/05/25 00:40:56;;;;;;;13.33;6.00;;;;;;;5.95;100.00;96800.78;7395393;19;20765;-74
2023/05/25 00:43:23;;;;;;;12.47;6.10;;;;;;;5.94;100.00;96788.72;7398596;19;20896;-74
2023/05/25 00:45:50;;;;;;;11.20;6.37;;;;;;;5.91;100.00;96790.09;7395169;19;20364;-74
2023/05/25 00:48:17;;;;;;;10.97;7.10;;;;;;;5.84;100.00;96800.09;7393108;19;20380;-74
2023/05/25 00:50:45;;;;;;;10.77;7.03;;;;;;;5.86;100.00;96808.47;7395559;19;20400;-74
2023/05/25 00:53:12;;;;;;;11.07;6.97;;;;;;;5.52;100.00;96776.44;7394128;19;20415;-74
2023/05/25 00:56:13;;;;;;;9.40;6.63;;;;;;;5.58;100.00;96797.03;7395344;19;20919;-74
2023/05/25 00:58:42;;;;;;;8.80;6.03;;;;;;;5.38;100.00;96771.09;7394654;19;20371;-74
2023/05/25 01:01:12;;;;;;;8.97;6.00;;;;;;;5.65;100.00;96809.81;7395901;19;20974;-73
2023/05/25 01:03:44;;;;;;;10.30;6.23;;;;;;;5.64;100.00;96806.41;7394887;19;20407;-74
2023/05/25 01:06:14;;;;;;;12.97;6.03;;;;;;;5.70;100.00;96790.59;7393700;19;20364;-74
2023/05/25 01:08:48;;;;;;;9.83;6.80;;;;;;;5.68;100.00;96785.66;7393963;19;20788;-74
2023/05/25 01:11:18;;;;;;;8.67;5.37;;;;;;;5.27;100.00;96754.69;7393749;19;20757;-74
2023/05/25 01:13:47;;;;;;;6.77;6.17;;;;;;;5.62;100.00;96799.91;7396509;19;20372;-74
2023/05/25 01:16:15;;;;;;;9.47;5.80;;;;;;;5.34;100.00;96765.63;7394849;19;20368;-74
2023/05/25 01:18:42;;;;;;;9.73;6.43;;;;;;;5.49;100.00;96777.78;7395852;19;20412;-74
2023/05/25 01:21:20;;;;;;;7.00;5.87;;;;;;;5.64;100.00;96795.16;7393880;19;20751;-74
2023/05/25 01:24:21;;;;;;;12.87;6.10;;;;;;;5.61;100.00;96816.69;7396749;19;20365;-74
2023/05/25 01:26:57;;;;;;;8.70;6.43;;;;;;;5.43;100.00;96812.19;7393127;19;20400;-74
2023/05/25 01:29:27;;;;;;;6.57;5.70;;;;;;;5.51;100.00;96807.13;7394822;19;20372;-74
2023/05/25 01:31:56;;;;;;;12.63;7.50;;;;;;;5.30;100.00;96782.19;7394611;19;20424;-74
2023/05/25 01:34:24;;;;;;;6.80;5.53;;;;;;;5.37;100.00;96779.25;7394814;19;20373;-74
2023/05/25 01:36:51;;;;;;;7.33;6.23;;;;;;;5.29;100.00;96781.41;7396559;19;20415;-74
2023/05/25 01:39:21;;;;;;;12.30;5.80;;;;;;;5.55;100.00;96802.84;7394470;19;20420;-74
2023/05/25 01:41:48;;;;;;;8.77;6.83;;;;;;;5.67;100.00;96810.31;7393069;19;20452;-74
2023/05/25 01:44:15;;;;;;;11.83;6.50;;;;;;;5.42;100.00;96760.81;7396159;19;20928;-74
2023/05/25 01:46:42;;;;;;;9.13;5.90;;;;;;;5.51;100.00;96780.88;7394855;19;20734;-74
2023/05/25 01:49:12;;;;;;;8.40;6.30;;;;;;;5.50;100.00;96807.41;7397253;19;20393;-74
2023/05/25 01:51:55;;;;;;;8.33;6.27;;;;;;;5.43;100.00;96767.63;7394078;19;20416;-74
2023/05/25 01:54:31;;;;;;;8.13;5.90;;;;;;;5.58;100.00;96809.38;7395790;19;20392;-74
2023/05/25 01:57:00;;;;;;;6.83;6.13;;;;;;;5.43;100.00;96792.00;7393860;19;20380;-75
2023/05/25 01:59:30;;;;;;;10.47;4.97;;;;;;;5.33;100.00;96784.25;7397915;19;20414;-75
2023/05/25 02:01:59;;;;;;;11.43;6.10;;;;;;;5.16;100.00;96773.44;7401624;19;20397;-74
2023/05/25 02:04:27;;;;;;;11.20;5.87;;;;;;;4.77;100.00;96757.88;7402934;19;20789;-74
2023/05/25 02:06:54;;;;;;;9.53;5.73;;;;;;;5.04;100.00;96800.03;7402313;19;20459;-74
2023/05/25 02:09:21;;;;;;;10.50;7.37;;;;;;;5.10;100.00;96792.91;7399446;19;20936;-74
2023/05/25 02:11:49;;;;;;;9.53;6.43;;;;;;;4.86;100.00;96812.03;7399269;19;20435;-74
2023/05/25 02:14:16;;;;;;;9.30;6.33;;;;;;;5.07;100.00;96801.31;7399851;19;20341;-74
2023/05/25 02:16:44;;;;;;;10.77;6.30;;;;;;;5.01;100.00;96814.47;7401142;19;20384;-74
2023/05/25 02:19:13;;;;;;;7.70;7.00;;;;;;;5.05;100.00;96815.47;7399774;19;20393;-74
2023/05/25 02:21:41;;;;;;;10.97;5.67;;;;;;;5.01;100.00;96821.56;7399993;19;20496;-74
2023/05/25 02:24:09;;;;;;;8.20;6.70;;;;;;;5.02;100.00;96808.19;7399722;19;20369;-74
2023/05/25 02:26:37;;;;;;;6.40;5.80;;;;;;;5.11;100.00;96797.09;7402486;19;20379;-74
2023/05/25 02:29:05;;;;;;;9.60;6.10;;;;;;;5.04;100.00;96806.06;7397290;19;20413;-74
2023/05/25 02:31:32;;;;;;;11.27;6.33;;;;;;;4.86;100.00;96795.53;7397187;19;20463;-74
2023/05/25 02:34:00;;;;;;;9.60;6.60;;;;;;;4.74;100.00;96773.09;7399585;19;20482;-74
2023/05/25 02:36:27;;;;;;;8.93;6.70;;;;;;;4.78;100.00;96790.88;7400790;19;20361;-74
2023/05/25 02:38:54;;;;;;;10.17;7.30;;;;;;;4.87;100.00;96789.22;7399472;19;20404;-74
2023/05/25 02:41:23;;;;;;;16.07;8.00;;;;;;;4.42;100.00;96754.56;7400197;19;20528;-74
2023/05/25 02:43:50;;;;;;;15.30;6.70;;;;;;;4.91;100.00;96800.69;7396846;19;20389;-74
2023/05/25 02:46:17;;;;;;;7.90;5.90;;;;;;;4.55;100.00;96803.69;7401013;19;20380;-74
2023/05/25 02:48:46;;;;;;;10.20;6.93;;;;;;;4.59;100.00;96768.00;7397460;19;20391;-74
2023/05/25 02:51:13;;;;;;;7.67;6.20;;;;;;;4.69;100.00;96773.16;7400125;19;20424;-74
2023/05/25 02:53:40;;;;;;;13.30;8.00;;;;;;;4.58;100.00;96755.19;7400459;19;20896;-74
2023/05/25 02:56:09;;;;;;;9.37;6.27;;;;;;;4.73;100.00;96779.41;7400528;19;20444;-74
2023/05/25 02:58:37;;;;;;;7.67;6.40;;;;;;;4.84;100.00;96780.09;7399166;19;20448;-74
2023/05/25 03:01:17;;;;;;;9.70;6.00;;;;;;;4.88;100.00;96785.53;7399892;19;21028;-74
2023/05/25 03:03:51;;;;;;;11.37;7.07;;;;;;;5.08;100.00;96818.63;7396342;19;20992;-74
2023/05/25 03:06:21;;;;;;;12.57;6.17;;;;;;;4.99;100.00;96811.38;7398179;19;20768;-74
2023/05/25 03:08:53;;;;;;;9.10;6.97;;;;;;;4.61;100.00;96810.41;7398163;19;20373;-74
2023/05/25 03:11:20;;;;;;;12.10;6.33;;;;;;;4.45;100.00;96788.81;7395224;19;20405;-74
2023/05/25 03:13:47;;;;;;;8.60;5.67;;;;;;;4.26;100.00;96801.00;7401111;19;20369;-74
2023/05/25 03:16:15;;;;;;;9.13;6.37;;;;;;;4.05;100.00;96810.06;7398296;19;20377;-73
2023/05/25 03:18:42;;;;;;;9.23;6.50;;;;;;;3.87;100.00;96798.38;7399908;19;20390;-74
2023/05/25 03:21:10;;;;;;;6.90;5.73;;;;;;;4.23;100.00;96819.09;7397682;19;20447;-74
2023/05/25 03:23:37;;;;;;;8.80;6.50;;;;;;;4.08;100.00;96789.38;7399508;19;20348;-74
2023/05/25 03:26:06;;;;;;;14.07;8.87;;;;;;;3.84;100.00;96812.00;7397757;19;20773;-74
2023/05/25 03:28:33;;;;;;;12.10;7.20;;;;;;;3.96;100.00;96803.84;7397899;19;20772;-74
2023/05/25 03:31:00;;;;;;;16.77;7.70;;;;;;;4.27;100.00;96841.81;7397164;19;20404;-74
2023/05/25 03:33:27;;;;;;;8.70;7.10;;;;;;;4.19;100.00;96828.56;7399491;19;20380;-74
2023/05/25 03:35:54;;;;;;;7.97;6.50;;;;;;;4.15;100.00;96828.31;7397497;19;20735;-74
2023/05/25 03:38:22;;;;;;;12.80;8.30;;;;;;;4.08;100.00;96840.91;7399010;19;20407;-74
2023/05/25 03:40:49;;;;;;;9.00;6.93;;;;;;;3.64;100.00;96780.75;7397723;19;20353;-74
2023/05/25 03:43:16;;;;;;;10.73;7.20;;;;;;;3.80;100.00;96817.00;7399302;19;20372;-74
2023/05/25 03:45:45;;;;;;;13.33;8.33;;;;;;;3.78;100.00;96807.88;7398272;19;20887;-74
2023/05/25 03:48:13;;;;;;;16.87;8.50;;;;;;;4.10;100.00;96850.06;7399107;19;20397;-74
2023/05/25 03:50:40;;;;;;;10.17;6.73;;;;;;;4.28;100.00;96846.03;7402948;19;20361;-74
2023/05/25 03:53:07;;;;;;;9.97;7.50;;;;;;;4.10;100.00;96829.13;7430932;19;20402;-75
2023/05/25 03:55:34;;;;;;;12.77;7.00;;;;;;;4.17;100.00;96822.81;7432127;19;20367;-75
2023/05/25 03:58:01;;;;;;;7.40;6.70;;;;;;;4.45;100.00;96848.25;7422224;19;20353;-74
2023/05/25 04:00:28;;;;;;;16.07;7.20;;;;;;;4.47;100.00;96827.03;7398226;19;20369;-74
2023/05/25 04:02:55;;;;;;;18.83;7.30;;;;;;;4.59;100.00;96851.03;7394667;19;20425;-75
2023/05/25 04:05:22;;;;;;;9.53;7.00;;;;;;;4.69;100.00;96849.13;7397987;19;20389;-74
2023/05/25 04:07:50;;;;;;;7.70;6.93;;;;;;;4.84;100.00;96861.28;7396082;19;20408;-74
2023/05/25 04:10:17;;;;;;;8.30;6.47;;;;;;;4.73;100.00;96821.31;7397961;19;20361;-74
2023/05/25 04:12:44;;;;;;;8.67;6.40;;;;;;;4.94;100.00;96842.06;7393969;19;20847;-74
2023/05/25 04:15:13;;;;;;;7.40;5.90;;;;;;;4.80;100.00;96843.75;7397473;19;20447;-74
2023/05/25 04:17:55;;;;;;;12.37;6.77;;;;;;;4.67;100.00;96848.59;7396270;19;20376;-74
2023/05/25 04:20:22;;;;;;;15.27;7.17;;;;;;;4.90;100.00;96856.78;7397864;19;20384;-74
2023/05/25 04:22:49;;;;;;;11.80;6.60;;;;;;;4.71;100.00;96844.38;7394308;19;20450;-74
2023/05/25 04:25:16;;;;;;;11.60;6.37;;;;;;;4.89;100.00;96847.34;7397919;19;20375;-74
2023/05/25 04:27:45;;;;;;;7.93;5.93;;;;;;;4.68;100.00;96855.41;7395538;19;20371;-74
2023/05/25 04:30:15;;;;;;;12.13;6.87;;;;;;;4.86;100.00;96867.03;7397530;19;20377;-74
2023/05/25 04:32:53;;;;;;;8.97;7.40;;;;;;;5.31;100.00;96862.41;7394584;19;20983;-74
2023/05/25 04:35:30;;;;;;;9.83;6.03;;;;;;;5.52;100.00;96876.84;7394983;19;20384;-74
2023/05/25 04:38:01;;;;;;;12.10;6.93;;;;;;;5.51;100.00;96846.44;7394118;19;20928;-74
2023/05/25 04:40:31;;;;;;;11.97;6.80;;;;;;;5.87;100.00;96875.63;7395330;19;20360;-74
2023/05/25 04:42:59;;;;;;;11.50;6.50;;;;;;;5.81;100.00;96849.75;7395031;19;20417;-74
2023/05/25 04:45:28;;;;;;;9.60;7.10;;;;;;;5.79;100.00;96854.50;7395342;19;20412;-74
2023/05/25 04:47:56;;;;;;;15.63;7.77;;;;;;;6.12;100.00;96874.56;7396637;19;20377;-75
2023/05/25 04:50:26;;;;;;;11.83;6.53;;;;;;;6.05;100.00;96855.00;7395656;19;20376;-74
2023/05/25 04:52:53;;;;;;;12.20;7.73;;;;;;;6.40;100.00;96866.81;7396078;19;20424;-74
2023/05/25 04:55:20;;;;;;;10.57;6.50;;;;;;;6.62;100.00;96879.38;7396231;19;20436;-75
2023/05/25 04:57:48;;;;;;;11.50;6.73;;;;;;;6.76;100.00;96869.69;7396668;19;20444;-74
2023/05/25 05:00:15;;;;;;;11.30;7.20;;;;;;;7.03;100.00;96875.00;7396931;19;20369;-75
2023/05/25 05:02:44;;;;;;;8.00;6.40;;;;;;;7.25;100.00;96881.47;7395240;19;20439;-74
2023/05/25 05:05:12;;;;;;;11.87;7.23;;;;;;;7.33;100.00;96873.66;7395037;19;20372;-74
2023/05/25 05:07:39;;;;;;;12.33;7.13;;;;;;;7.74;100.00;96907.09;7396490;19;20905;-75
2023/05/25 05:10:07;;;;;;;10.10;6.73;;;;;;;7.77;100.00;96903.91;7395288;19;20384;-75
2023/05/25 05:12:36;;;;;;;9.07;7.10;;;;;;;7.84;100.00;96909.53;7392457;19;20420;-74
2023/05/25 05:15:04;;;;;;;12.73;6.23;;;;;;;7.69;100.00;96879.03;7395182;19;20716;-75
2023/05/25 05:17:31;;;;;;;19.80;7.73;;;;;;;8.09;100.00;96913.53;7393728;19;20348;-75
2023/05/25 05:19:58;;;;;;;15.40;8.50;;;;;;;8.14;100.00;96908.13;7395407;19;20455;-75
2023/05/25 05:22:26;;;;;;;12.63;7.03;;;;;;;8.02;100.00;96868.41;7392307;19;20427;-75
2023/05/25 05:24:53;;;;;;;15.00;7.43;;;;;;;8.35;100.00;96923.56;7395803;19;20496;-74
2023/05/25 05:27:25;;;;;;;17.17;6.93;;;;;;;8.52;100.00;96916.56;7394330;19;20372;-75
2023/05/25 05:29:57;;;;;;;11.70;7.47;;;;;;;8.70;100.00;96917.50;7393382;19;20425;-75
2023/05/25 05:32:24;;;;;;;11.63;7.07;;;;;;;8.81;100.00;96905.66;7392039;19;20409;-75
2023/05/25 05:34:51;;;;;;;11.83;6.90;;;;;;;8.63;100.00;96903.94;7399317;19;20466;-74
2023/05/25 05:37:32;;;;;;;15.33;6.97;;;;;;;8.73;100.00;96890.53;7402048;19;20364;-75
2023/05/25 05:39:59;;;;;;;11.40;6.73;;;;;;;8.96;100.00;96903.72;7403261;19;20404;-74
2023/05/25 05:42:26;;;;;;;15.83;5.90;;;;;;;8.90;100.00;96900.41;7399371;19;20428;-74
2023/05/25 05:44:53;;;;;;;11.13;6.60;;;;;;;9.24;100.00;96928.09;7402803;19;20880;-75
2023/05/25 05:47:20;;;;;;;7.30;6.20;;;;;;;8.99;100.00;96908.38;7402118;19;20360;-75
2023/05/25 05:49:47;;;;;;;9.63;6.17;;;;;;;9.16;100.00;96897.94;7400669;19;20748;-75
2023/05/25 05:52:15;;;;;;;11.47;5.57;;;;;;;9.57;100.00;96910.84;7399718;19;20428;-74
2023/05/25 05:54:42;;;;;;;10.10;6.43;;;;;;;9.82;100.00;96912.03;7403018;19;20388;-74
2023/05/25 05:57:12;;;;;;;9.20;5.80;;;;;;;9.87;100.00;96888.09;7401451;19;20392;-75
2023/05/25 05:59:39;;;;;;;9.13;6.07;;;;;;;10.20;100.00;96904.34;7402998;19;20400;-75
2023/05/25 06:02:06;;;;;;;10.00;6.80;;;;;;;10.28;100.00;96881.66;7396877;19;20764;-75
2023/05/25 06:04:33;;;;;;;11.30;6.70;;;;;;;10.89;100.00;96922.88;7403134;19;20376;-75
2023/05/25 06:07:01;;;;;;;7.80;5.23;;;;;;;10.94;100.00;96912.13;7401641;19;20471;-75
2023/05/25 06:09:28;;;;;;;11.50;5.33;;;;;;;11.05;100.00;96909.94;7398335;19;20368;-75
2023/05/25 06:11:58;;;;;;;9.30;5.60;;;;;;;11.22;100.00;96932.97;7400280;19;20428;-74
2023/05/25 06:14:25;;;;;;;11.47;5.80;;;;;;;10.97;100.00;96907.34;7399872;19;20900;-74
2023/05/25 06:16:56;;;;;;;9.40;6.13;;;;;;;10.80;100.00;96908.88;7401683;19;20404;-74
2023/05/25 06:19:24;;;;;;;9.17;4.77;;;;;;;10.88;100.00;96912.63;7400271;19;20377;-74
2023/05/25 06:21:51;;;;;;;6.33;5.43;;;;;;;10.91;100.00;96904.84;7400311;19;20424;-74
2023/05/25 06:24:19;;;;;;;6.00;5.20;;;;;;;11.10;100.00;96932.84;7399652;19;20389;-74
2023/05/25 06:26:46;;;;;;;12.30;5.33;;;;;;;11.34;100.00;96919.06;7402586;19;20444;-75
2023/05/25 06:29:14;;;;;;;17.10;6.23;;;;;;;11.23;100.00;96908.84;7398577;19;20384;-75
2023/05/25 06:31:43;;;;;;;6.87;5.80;;;;;;;11.66;100.00;96934.41;7399724;19;20420;-75
2023/05/25 06:34:10;;;;;;;12.07;4.60;;;;;;;11.70;100.00;96895.56;7399697;19;20401;-75
2023/05/25 06:36:37;;;;;;;12.93;5.30;;;;;;;12.01;100.00;96940.31;7401116;19;20919;-74
2023/05/25 06:39:04;;;;;;;14.23;6.10;;;;;;;12.18;100.00;96942.13;7399931;19;20381;-75
2023/05/25 06:41:31;;;;;;;13.00;6.77;;;;;;;11.66;100.00;96918.50;7399930;19;20428;-74
2023/05/25 06:43:58;;;;;;;9.47;6.00;;;;;;;12.10;100.00;96940.28;7399486;19;20437;-75
2023/05/25 06:46:38;;;;;;;10.60;6.30;;;;;;;12.29;100.00;96948.63;7398135;19;20937;-75
2023/05/25 06:49:07;;;;;;;14.03;6.60;;;;;;;12.67;100.00;96951.16;7398859;19;20356;-75
2023/05/25 06:51:34;;;;;;;11.70;5.97;;;;;;;12.78;100.00;96950.75;7397528;19;20457;-74
2023/05/25 06:54:01;;;;;;;11.83;6.27;;;;;;;12.79;100.00;96925.78;7400808;19;20751;-75
2023/05/25 06:56:28;;;;;;;11.83;5.53;;;;;;;12.50;100.00;96922.09;7397710;19;20385;-75
2023/05/25 06:58:55;;;;;;;9.63;4.80;;;;;;;12.99;100.00;96936.38;7399057;19;20687;-75
2023/05/25 07:01:22;;;;;;;7.73;4.80;;;;;;;13.28;100.00;96898.31;7397049;19;20421;-75
2023/05/25 07:03:49;;;;;;;8.97;5.30;;;;;;;13.78;100.00;96947.78;7399149;19;20444;-75
2023/05/25 07:06:16;;;;;;;13.13;6.00;;;;;;;13.81;98.15;96931.16;7397996;19;20412;-75
2023/05/25 07:08:43;;;;;;;8.37;4.97;;;;;;;13.71;97.03;96928.94;7398962;19;20368;-75
2023/05/25 07:11:12;;;;;;;7.27;4.90;;;;;;;13.86;93.93;96943.44;7397559;19;20405;-75
2023/05/25 07:13:40;;;;;;;10.47;5.60;;;;;;;13.71;95.11;96944.88;7400915;19;20355;-75
2023/05/25 07:16:06;;;;;;;11.87;5.73;;;;;;;13.71;93.04;96946.75;7399709;19;20393;-75
2023/05/25 07:18:33;;;;;;;7.50;4.67;;;;;;;13.97;93.33;96949.88;7400028;19;20847;-75
2023/05/25 07:21:00;;;;;;;13.07;6.13;;;;;;;14.29;92.53;96963.38;7399980;19;20401;-74
2023/05/25 07:23:27;;;;;;;10.13;5.53;;;;;;;13.89;93.48;96929.50;7400889;19;20380;-75
2023/05/25 07:25:54;;;;;;;12.63;6.50;;;;;;;13.73;91.01;96947.97;7398504;19;20375;-75
2023/05/25 07:28:21;;;;;;;9.63;5.20;;;;;;;13.69;90.76;96952.41;7399475;19;20875;-75
2023/05/25 07:30:48;;;;;;;10.63;5.23;;;;;;;13.47;91.21;96944.81;7398825;19;20383;-75
2023/05/25 07:33:15;;;;;;;14.63;5.37;;;;;;;13.68;90.86;96937.56;7400455;19;20380;-75
2023/05/25 07:35:42;;;;;;;10.60;5.80;;;;;;;14.06;91.58;96950.53;7398011;19;20368;-75
2023/05/25 07:38:09;;;;;;;8.97;5.10;;;;;;;13.73;91.21;96925.94;7400847;19;20357;-75
2023/05/25 07:40:36;;;;;;;6.87;4.73;;;;;;;14.29;90.77;96958.06;7397138;19;20377;-75
2023/05/25 07:43:04;;;;;;;15.87;5.33;;;;;;;13.94;89.04;96969.16;7396733;19;20441;-75
2023/05/25 07:45:33;;;;;;;11.23;5.00;;;;;;;14.43;90.30;96942.53;7397138;19;20988;-75
2023/05/25 07:48:00;;;;;;;8.43;4.40;;;;;;;14.82;88.93;96964.97;7400301;19;20373;-75
2023/05/25 07:50:27;;;;;;;10.60;4.40;;;;;;;14.90;85.85;96942.75;7395665;19;20487;-76
2023/05/25 07:52:58;;;;;;;9.97;5.60;;;;;;;14.61;85.08;96962.47;7398089;19;20403;-76
2023/05/25 07:55:26;;;;;;;7.53;5.17;;;;;;;15.21;83.66;96955.38;7398571;19;20341;-75
2023/05/25 07:57:52;;;;;;;9.77;6.20;;;;;;;14.74;84.81;96957.91;7397046;19;20758;-75
2023/05/25 08:00:20;;;;;;;10.83;4.43;;;;;;;14.71;86.25;96967.34;7398411;19;20349;-75
2023/05/25 08:02:48;;;;;;;5.07;4.60;;;;;;;14.87;82.56;96964.75;7397426;19;20436;-76
2023/05/25 08:05:15;;;;;;;9.30;4.83;;;;;;;14.73;82.90;96946.47;7397472;19;20372;-75
2023/05/25 08:07:43;;;;;;;13.67;5.60;;;;;;;15.26;82.60;96971.13;7397040;19;20350;-76
2023/05/25 08:10:11;;;;;;;9.00;5.57;;;;;;;14.97;81.94;96976.81;7395764;19;20365;-76
2023/05/25 08:12:38;;;;;;;6.57;4.20;;;;;;;15.64;80.13;96978.63;7394722;19;20435;-76
2023/05/25 08:15:15;;;;;;;7.07;5.20;;;;;;;16.24;81.38;96971.28;7399405;19;20344;-76
2023/05/25 08:17:43;;;;;;;8.17;4.50;;;;;;;16.01;79.55;96959.69;7397372;19;20369;-75
2023/05/25 08:20:10;;;;;;;7.87;4.30;;;;;;;15.79;77.30;96965.66;7397535;19;20380;-75
2023/05/25 08:22:37;;;;;;;6.87;4.97;;;;;;;15.77;80.08;96976.66;7394082;19;20944;-75
2023/05/25 08:25:05;;;;;;;7.80;5.23;;;;;;;15.12;78.81;96956.66;7397394;19;20409;-76
2023/05/25 08:27:32;;;;;;;6.70;5.20;;;;;;;15.32;80.01;96948.44;7395633;19;20367;-76
2023/05/25 08:30:04;;;;;;;10.37;5.00;;;;;;;15.55;78.16;96954.00;7395482;19;20349;-76
2023/05/25 08:32:31;;;;;;;7.80;4.57;;;;;;;16.10;78.43;96949.63;7394262;19;20416;-76
2023/05/25 08:35:02;;;;;;;8.03;4.73;;;;;;;15.73;78.38;96951.00;7395601;19;20365;-76
2023/05/25 08:37:31;;;;;;;10.40;5.27;;;;;;;16.13;77.08;96974.84;7397237;19;20337;-75
2023/05/25 08:40:00;;;;;;;9.70;4.87;;;;;;;16.48;78.56;96956.97;7399355;19;20890;-76
2023/05/25 08:42:28;;;;;;;6.67;4.90;;;;;;;16.13;76.77;96951.59;7394673;19;20429;-76
2023/05/25 08:44:55;;;;;;;10.17;5.73;;;;;;;16.93;76.73;96936.16;7397591;19;20393;-76
2023/05/25 08:47:23;;;;;;;6.17;4.70;;;;;;;16.39;76.63;96939.59;7397374;19;20337;-76
2023/05/25 08:49:51;;;;;;;11.60;5.33;;;;;;;16.26;75.61;96960.28;7396319;19;20389;-75
2023/05/25 08:52:23;;;;;;;10.33;5.13;;;;;;;15.98;75.38;96957.72;7395943;19;20907;-75
2023/05/25 08:54:53;;;;;;;7.60;5.77;;;;;;;16.21;77.49;96958.66;7394546;19;20373;-75
2023/05/25 08:57:30;;;;;;;7.70;5.53;;;;;;;16.81;76.92;96971.78;7396118;19;20376;-75
2023/05/25 09:00:10;;;;;;;12.00;5.70;;;;;;;17.47;75.96;96983.34;7396233;19;20904;-75
2023/05/25 09:02:43;;;;;;;8.50;5.30;;;;;;;17.56;74.63;96979.34;7396676;19;20759;-75
2023/05/25 09:05:12;;;;;;;6.27;5.10;;;;;;;17.32;73.47;96971.63;7393909;19;20353;-75
2023/05/25 09:07:41;;;;;;;9.77;5.87;;;;;;;16.94;74.16;96975.88;7397079;19;20376;-75
2023/05/25 09:10:13;;;;;;;10.67;6.30;;;;;;;16.09;75.13;96963.31;7392483;19;20502;-75
2023/05/25 09:12:41;;;;;;;8.33;5.47;;;;;;;16.67;74.42;96966.91;7392243;19;20457;-75
2023/05/25 09:15:10;;;;;;;10.43;5.60;;;;;;;16.92;77.22;96991.47;7395587;19;20392;-75
2023/05/25 09:17:38;;;;;;;6.03;4.90;;;;;;;16.94;73.88;96993.78;7393995;19;20766;-75
2023/05/25 09:20:06;;;;;;;9.23;5.10;;;;;;;17.26;73.04;96973.06;7392565;19;20380;-75
2023/05/25 09:22:34;;;;;;;7.03;4.77;;;;;;;17.66;72.76;96989.47;7392598;19;20421;-75
2023/05/25 09:25:07;;;;;;;9.00;5.60;;;;;;;17.50;73.41;96990.69;7395676;19;20449;-75
2023/05/25 09:27:38;;;;;;;8.43;6.20;;;;;;;16.74;75.92;96979.66;7393971;19;20396;-75
2023/05/25 09:30:05;;;;;;;12.10;5.67;;;;;;;16.66;74.82;96975.25;7396237;19;20352;-75
2023/05/25 09:32:32;;;;;;;6.13;4.83;;;;;;;17.55;73.27;96971.69;7392964;19;20453;-75
2023/05/25 09:35:13;;;;;;;7.70;5.57;;;;;;;17.90;73.09;96982.25;7395555;19;20942;-75
2023/05/25 09:37:40;;;;;;;7.43;5.43;;;;;;;17.82;72.83;96985.94;7395259;19;20374;-75
2023/05/25 09:40:11;;;;;;;9.13;5.50;;;;;;;17.59;72.42;96967.94;7396512;19;20358;-75
2023/05/25 09:42:41;;;;;;;9.57;6.00;;;;;;;17.68;74.53;96952.47;7393061;19;20417;-73
2023/05/25 09:45:08;;;;;;;11.83;5.30;;;;;;;17.97;72.65;96977.78;7392875;19;20393;-73
2023/05/25 09:47:36;;;;;;;10.97;5.67;;;;;;;18.46;72.22;96979.66;7395993;19;20378;-73
2023/05/25 09:50:04;;;;;;;7.40;5.70;;;;;;;18.55;70.28;96977.47;7392663;19;20873;-74
2023/05/25 09:52:31;;;;;;;8.90;6.37;;;;;;;18.40;72.83;96973.06;7393261;19;20429;-74
2023/05/25 09:54:58;;;;;;;6.70;5.30;;;;;;;18.19;73.57;96978.88;7393252;19;20405;-74
2023/05/25 09:57:26;;;;;;;8.37;6.00;;;;;;;17.56;73.42;96979.34;7394808;19;20389;-74
2023/05/25 09:59:52;;;;;;;6.40;4.43;;;;;;;17.84;70.55;96960.34;7394584;19;20336;-74
2023/05/25 10:02:19;;;;;;;6.67;4.80;;;;;;;18.16;70.33;96957.41;7394359;19;20414;-74
2023/05/25 10:04:47;;;;;;;9.70;5.73;;;;;;;18.47;70.42;96950.97;7392741;19;20905;-74
2023/05/25 10:07:14;;;;;;;14.50;5.90;;;;;;;19.13;70.08;96976.34;7394616;19;20389;-74
2023/05/25 10:09:45;;;;;;;8.33;5.47;;;;;;;18.70;70.86;96965.09;7393752;19;20711;-74
2023/05/25 10:12:18;;;;;;;5.40;4.90;;;;;;;17.80;68.62;96950.75;7392825;19;20436;-74
2023/05/25 10:14:45;;;;;;;7.00;5.37;;;;;;;18.25;70.01;96974.75;7392915;19;20349;-75
2023/05/25 10:17:17;;;;;;;7.70;6.90;;;;;;;18.48;69.62;96973.94;7395122;19;20396;-74
2023/05/25 10:19:53;;;;;;;7.43;5.27;;;;;;;18.20;68.67;96964.38;7394615;19;20383;-74
2023/05/25 10:22:42;;;;;;;8.47;5.87;;;;;;;18.12;68.00;96975.31;7397502;19;20428;-74
2023/05/25 10:25:15;;;;;;;13.30;6.27;;;;;;;18.16;67.29;96960.06;7401579;19;20380;-73
2023/05/25 10:27:49;;;;;;;7.00;5.80;;;;;;;18.77;67.39;96973.22;7400248;19;20409;-74
2023/05/25 10:30:18;;;;;;;7.50;6.80;;;;;;;19.21;66.46;96948.47;7400323;19;20941;-74
2023/05/25 10:32:46;;;;;;;9.77;5.93;;;;;;;19.40;66.70;96948.28;7398166;19;20429;-74
2023/05/25 10:35:13;;;;;;;6.43;5.80;;;;;;;19.75;65.13;96963.97;7401813;19;20397;-74
2023/05/25 10:37:41;;;;;;;6.23;5.53;;;;;;;19.66;65.33;96936.69;7400749;19;20367;-74
2023/05/25 10:40:09;;;;;;;6.60;5.27;;;;;;;19.09;65.07;96954.84;7401935;19;20417;-74
2023/05/25 10:42:37;;;;;;;8.33;5.70;;;;;;;19.59;65.88;96973.41;7397956;19;20375;-74
2023/05/25 10:45:07;;;;;;;7.27;5.17;;;;;;;19.88;64.24;96969.81;7401605;19;20372;-74
2023/05/25 10:47:42;;;;;;;7.17;6.20;;;;;;;19.72;65.46;96950.53;7400641;19;20397;-74
2023/05/25 10:50:25;;;;;;;8.20;5.93;;;;;;;19.96;63.26;96967.97;7398126;19;20410;-74
2023/05/25 10:53:11;;;;;;;7.27;5.77;;;;;;;19.33;64.25;96972.34;7398357;19;20412;-73
2023/05/25 10:55:42;;;;;;;9.40;5.40;;;;;;;19.81;63.78;96977.81;7399425;19;20390;-74
2023/05/25 10:58:11;;;;;;;7.13;5.23;;;;;;;19.79;63.62;96934.50;7398457;19;20414;-74
2023/05/25 11:00:39;;;;;;;10.20;6.20;;;;;;;19.80;64.79;96968.25;7401097;19;20351;-74
2023/05/25 11:03:06;;;;;;;7.73;6.33;;;;;;;19.51;62.34;96950.31;7395958;19;20406;-73
2023/05/25 11:05:38;;;;;;;13.40;6.97;;;;;;;19.93;63.08;96968.72;7399518;19;20410;-74
2023/05/25 11:08:11;;;;;;;5.73;5.23;;;;;;;20.04;62.67;96966.91;7398256;19;20367;-74
2023/05/25 11:10:47;;;;;;;7.07;5.40;;;;;;;19.96;62.65;96974.13;7399042;19;20406;-73
2023/05/25 11:13:59;;;;;;;7.13;5.20;;;;;;;19.96;62.20;96949.97;7400562;19;20378;-73
2023/05/25 11:16:25;;;;;;;8.00;6.40;;;;;;;20.40;61.85;96949.09;7396299;19;20939;-74
2023/05/25 11:18:56;;;;;;;5.87;5.30;;;;;;;20.28;60.78;96927.91;7397908;19;20386;-74
2023/05/25 11:21:26;;;;;;;7.50;6.07;;;;;;;20.46;62.71;96930.75;7395903;19;20827;-73
2023/05/25 11:24:09;;;;;;;6.90;5.90;;;;;;;20.65;61.47;96941.22;7398072;19;20346;-74
2023/05/25 11:26:36;;;;;;;7.10;5.67;;;;;;;20.65;61.69;96941.97;7396724;19;20430;-74
2023/05/25 11:29:14;;;;;;;8.90;5.83;;;;;;;20.57;59.64;96927.00;7395154;19;20398;-74
2023/05/25 11:31:41;;;;;;;8.00;5.30;;;;;;;21.13;61.17;96951.78;7390287;19;20443;-74
2023/05/25 11:34:11;;;;;;;10.10;6.07;;;;;;;21.07;59.99;96950.59;7395340;19;20396;-74
2023/05/25 11:36:38;;;;;;;7.90;6.17;;;;;;;20.15;60.18;96922.09;7396939;19;20367;-74
2023/05/25 11:39:05;;;;;;;6.10;5.50;;;;;;;21.17;59.34;96947.19;7396188;19;20789;-73